sensor_id;sensor_type;location;lat;lon;timestamp;temperature;humidity
578;DHT22;275;48.492;9.214;2023-05-02T00:00:44;14.30;45.80
578;DHT22;275;48.492;9.214;2023-05-02T00:03:11;14.50;45.10
578;DHT22;275;48.492;9.214;2023-05-02T00:05:38;14.60;44.80
578;DHT22;275;48.492;9.214;2023-05-02T00:08:06;14.50;45.10
578;DHT22;275;48.492;9.214;2023-05-02T00:10:33;14.40;45.30
578;DHT22;275;48.492;9.214;2023-05-02T00:13:00;14.40;45.00
578;DHT22;275;48.492;9.214;2023-05-02T00:15:27;14.30;45.80
578;DHT22;275;48.492;9.214;2023-05-02T00:17:55;14.00;46.80
578;DHT22;275;48.492;9.214;2023-05-02T00:20:22;14.20;46.30
578;DHT22;275;48.492;9.214;2023-05-02T00:22:49;14.20;46.00
578;DHT22;275;48.492;9.214;2023-05-02T00:25:15;14.10;46.20
578;DHT22;275;48.492;9.214;2023-05-02T00:27:42;14.20;45.80
578;DHT22;275;48.492;9.214;2023-05-02T00:30:11;13.70;46.50
578;DHT22;275;48.492;9.214;2023-05-02T00:32:38;13.20;48.20
578;DHT22;275;48.492;9.214;2023-05-02T00:35:07;13.10;48.60
578;DHT22;275;48.492;9.214;2023-05-02T00:37:34;13.20;48.90
578;DHT22;275;48.492;9.214;2023-05-02T00:40:01;13.50;47.20
578;DHT22;275;48.492;9.214;2023-05-02T00:42:29;13.40;47.60
578;DHT22;275;48.492;9.214;2023-05-02T00:44:57;13.30;47.50
578;DHT22;275;48.492;9.214;2023-05-02T00:47:24;13.60;46.80
578;DHT22;275;48.492;9.214;2023-05-02T00:49:51;13.80;46.00
578;DHT22;275;48.492;9.214;2023-05-02T00:52:19;13.70;46.10
578;DHT22;275;48.492;9.214;2023-05-02T00:54:46;13.30;46.70
578;DHT22;275;48.492;9.214;2023-05-02T00:57:13;13.60;45.90
578;DHT22;275;48.492;9.214;2023-05-02T00:59:40;13.50;46.00
578;DHT22;275;48.492;9.214;2023-05-02T01:02:21;13.50;45.90
578;DHT22;275;48.492;9.214;2023-05-02T01:04:56;13.70;45.40
578;DHT22;275;48.492;9.214;2023-05-02T01:07:38;13.80;45.00
578;DHT22;275;48.492;9.214;2023-05-02T01:10:13;14.00;44.30
578;DHT22;275;48.492;9.214;2023-05-02T01:12:44;14.10;44.10
578;DHT22;275;48.492;9.214;2023-05-02T01:15:16;13.50;45.40
578;DHT22;275;48.492;9.214;2023-05-02T01:17:45;13.30;45.80
578;DHT22;275;48.492;9.214;2023-05-02T01:20:15;13.00;47.00
578;DHT22;275;48.492;9.214;2023-05-02T01:22:44;13.10;47.00
578;DHT22;275;48.492;9.214;2023-05-02T01:25:19;13.10;46.90
578;DHT22;275;48.492;9.214;2023-05-02T01:27:53;13.20;47.00
578;DHT22;275;48.492;9.214;2023-05-02T01:30:24;13.20;46.20
578;DHT22;275;48.492;9.214;2023-05-02T01:32:53;13.20;46.60
578;DHT22;275;48.492;9.214;2023-05-02T01:35:21;13.40;45.90
578;DHT22;275;48.492;9.214;2023-05-02T01:37:49;13.50;45.70
578;DHT22;275;48.492;9.214;2023-05-02T01:40:19;13.50;45.60
578;DHT22;275;48.492;9.214;2023-05-02T01:42:49;13.20;46.20
578;DHT22;275;48.492;9.214;2023-05-02T01:45:18;13.10;46.50
578;DHT22;275;48.492;9.214;2023-05-02T01:47:47;12.60;47.80
578;DHT22;275;48.492;9.214;2023-05-02T01:50:18;13.00;46.90
578;DHT22;275;48.492;9.214;2023-05-02T01:52:46;13.10;46.70
578;DHT22;275;48.492;9.214;2023-05-02T01:55:14;13.00;46.80
578;DHT22;275;48.492;9.214;2023-05-02T01:57:43;13.00;47.50
578;DHT22;275;48.492;9.214;2023-05-02T02:00:13;12.60;47.90
578;DHT22;275;48.492;9.214;2023-05-02T02:02:42;12.50;48.70
578;DHT22;275;48.492;9.214;2023-05-02T02:05:12;12.40;49.00
578;DHT22;275;48.492;9.214;2023-05-02T02:07:40;12.80;47.90
578;DHT22;275;48.492;9.214;2023-05-02T02:10:08;13.20;46.70
578;DHT22;275;48.492;9.214;2023-05-02T02:12:38;12.90;47.00
578;DHT22;275;48.492;9.214;2023-05-02T02:15:12;12.90;47.00
578;DHT22;275;48.492;9.214;2023-05-02T02:17:42;12.90;46.90
578;DHT22;275;48.492;9.214;2023-05-02T02:20:14;12.70;47.70
578;DHT22;275;48.492;9.214;2023-05-02T02:22:43;12.60;47.70
578;DHT22;275;48.492;9.214;2023-05-02T02:25:13;12.70;47.50
578;DHT22;275;48.492;9.214;2023-05-02T02:27:40;12.10;49.10
578;DHT22;275;48.492;9.214;2023-05-02T02:30:08;11.90;50.00
578;DHT22;275;48.492;9.214;2023-05-02T02:32:35;12.10;49.40
578;DHT22;275;48.492;9.214;2023-05-02T02:35:02;12.40;48.50
578;DHT22;275;48.492;9.214;2023-05-02T02:37:33;12.50;47.80
578;DHT22;275;48.492;9.214;2023-05-02T02:40:07;13.00;46.30
578;DHT22;275;48.492;9.214;2023-05-02T02:42:36;13.00;46.10
578;DHT22;275;48.492;9.214;2023-05-02T02:45:15;13.00;46.10
578;DHT22;275;48.492;9.214;2023-05-02T02:47:58;13.00;46.30
578;DHT22;275;48.492;9.214;2023-05-02T02:50:31;12.90;46.20
578;DHT22;275;48.492;9.214;2023-05-02T02:53:02;12.80;46.40
578;DHT22;275;48.492;9.214;2023-05-02T02:55:35;12.80;46.60
578;DHT22;275;48.492;9.214;2023-05-02T02:58:14;12.60;47.80
578;DHT22;275;48.492;9.214;2023-05-02T03:00:45;12.60;47.30
578;DHT22;275;48.492;9.214;2023-05-02T03:03:13;13.00;45.80
578;DHT22;275;48.492;9.214;2023-05-02T03:05:41;13.20;44.90
578;DHT22;275;48.492;9.214;2023-05-02T03:08:10;13.20;44.90
578;DHT22;275;48.492;9.214;2023-05-02T03:10:38;13.10;45.20
578;DHT22;275;48.492;9.214;2023-05-02T03:13:05;13.10;45.30
578;DHT22;275;48.492;9.214;2023-05-02T03:16:05;13.10;45.40
578;DHT22;275;48.492;9.214;2023-05-02T03:18:35;13.00;45.50
578;DHT22;275;48.492;9.214;2023-05-02T03:21:02;13.00;45.60
578;DHT22;275;48.492;9.214;2023-05-02T03:23:30;13.00;45.30
578;DHT22;275;48.492;9.214;2023-05-02T03:25:57;13.00;45.50
578;DHT22;275;48.492;9.214;2023-05-02T03:28:24;13.00;45.50
578;DHT22;275;48.492;9.214;2023-05-02T03:30:51;12.90;45.80
578;DHT22;275;48.492;9.214;2023-05-02T03:33:18;12.90;46.00
578;DHT22;275;48.492;9.214;2023-05-02T03:35:44;12.80;46.10
578;DHT22;275;48.492;9.214;2023-05-02T03:38:12;12.80;45.90
578;DHT22;275;48.492;9.214;2023-05-02T03:40:40;12.90;45.70
578;DHT22;275;48.492;9.214;2023-05-02T03:43:07;12.60;46.40
578;DHT22;275;48.492;9.214;2023-05-02T03:45:34;11.90;47.90
578;DHT22;275;48.492;9.214;2023-05-02T03:48:01;11.80;48.60
578;DHT22;275;48.492;9.214;2023-05-02T03:50:28;11.90;47.90
578;DHT22;275;48.492;9.214;2023-05-02T03:52:54;12.00;48.10
578;DHT22;275;48.492;9.214;2023-05-02T03:55:21;11.80;48.40
578;DHT22;275;48.492;9.214;2023-05-02T03:57:49;11.30;49.50
578;DHT22;275;48.492;9.214;2023-05-02T04:00:16;11.30;49.70
578;DHT22;275;48.492;9.214;2023-05-02T04:02:43;11.50;49.20
578;DHT22;275;48.492;9.214;2023-05-02T04:05:10;11.90;48.10
578;DHT22;275;48.492;9.214;2023-05-02T04:07:37;12.20;47.40
578;DHT22;275;48.492;9.214;2023-05-02T04:10:04;12.50;46.40
578;DHT22;275;48.492;9.214;2023-05-02T04:12:31;12.40;46.00
578;DHT22;275;48.492;9.214;2023-05-02T04:15:00;12.50;46.10
578;DHT22;275;48.492;9.214;2023-05-02T04:17:26;12.80;45.40
578;DHT22;275;48.492;9.214;2023-05-02T04:19:53;12.80;45.30
578;DHT22;275;48.492;9.214;2023-05-02T04:22:20;13.00;44.80
578;DHT22;275;48.492;9.214;2023-05-02T04:24:47;12.90;45.20
578;DHT22;275;48.492;9.214;2023-05-02T04:27:13;13.00;44.90
578;DHT22;275;48.492;9.214;2023-05-02T04:29:40;12.80;45.50
578;DHT22;275;48.492;9.214;2023-05-02T04:32:09;12.20;47.00
578;DHT22;275;48.492;9.214;2023-05-02T04:34:36;12.20;47.90
578;DHT22;275;48.492;9.214;2023-05-02T04:37:02;12.80;46.10
578;DHT22;275;48.492;9.214;2023-05-02T04:39:29;13.20;44.60
578;DHT22;275;48.492;9.214;2023-05-02T04:41:56;13.00;45.10
578;DHT22;275;48.492;9.214;2023-05-02T04:44:23;12.80;45.60
578;DHT22;275;48.492;9.214;2023-05-02T04:46:50;12.50;46.70
578;DHT22;275;48.492;9.214;2023-05-02T04:49:18;12.40;47.10
578;DHT22;275;48.492;9.214;2023-05-02T04:51:45;12.70;46.20
578;DHT22;275;48.492;9.214;2023-05-02T04:54:12;13.00;45.30
578;DHT22;275;48.492;9.214;2023-05-02T04:56:38;12.90;45.70
578;DHT22;275;48.492;9.214;2023-05-02T04:59:05;13.00;45.80
578;DHT22;275;48.492;9.214;2023-05-02T05:01:32;13.20;44.80
578;DHT22;275;48.492;9.214;2023-05-02T05:03:59;13.30;44.60
578;DHT22;275;48.492;9.214;2023-05-02T05:06:27;12.90;45.80
578;DHT22;275;48.492;9.214;2023-05-02T05:08:54;13.20;45.80
578;DHT22;275;48.492;9.214;2023-05-02T05:11:21;13.50;44.00
578;DHT22;275;48.492;9.214;2023-05-02T05:13:48;13.50;44.20
578;DHT22;275;48.492;9.214;2023-05-02T05:16:15;12.80;46.30
578;DHT22;275;48.492;9.214;2023-05-02T05:18:43;13.20;45.40
578;DHT22;275;48.492;9.214;2023-05-02T05:21:10;13.50;44.70
578;DHT22;275;48.492;9.214;2023-05-02T05:23:38;13.50;44.90
578;DHT22;275;48.492;9.214;2023-05-02T05:26:11;14.10;43.40
578;DHT22;275;48.492;9.214;2023-05-02T05:28:38;14.10;43.30
578;DHT22;275;48.492;9.214;2023-05-02T05:31:05;14.40;42.70
578;DHT22;275;48.492;9.214;2023-05-02T05:33:32;14.80;41.80
578;DHT22;275;48.492;9.214;2023-05-02T05:36:03;14.60;42.20
578;DHT22;275;48.492;9.214;2023-05-02T05:38:31;14.40;42.80
578;DHT22;275;48.492;9.214;2023-05-02T05:40:59;14.30;43.10
578;DHT22;275;48.492;9.214;2023-05-02T05:43:26;14.70;42.30
578;DHT22;275;48.492;9.214;2023-05-02T05:45:53;14.90;41.80
578;DHT22;275;48.492;9.214;2023-05-02T05:48:20;15.10;41.60
578;DHT22;275;48.492;9.214;2023-05-02T05:50:48;15.10;41.50
578;DHT22;275;48.492;9.214;2023-05-02T05:53:14;15.00;41.20
578;DHT22;275;48.492;9.214;2023-05-02T05:55:41;14.40;42.80
578;DHT22;275;48.492;9.214;2023-05-02T05:58:10;14.30;43.50
578;DHT22;275;48.492;9.214;2023-05-02T06:00:37;14.70;42.70
578;DHT22;275;48.492;9.214;2023-05-02T06:03:05;14.90;42.10
578;DHT22;275;48.492;9.214;2023-05-02T06:05:32;15.10;41.80
578;DHT22;275;48.492;9.214;2023-05-02T06:07:59;15.30;41.60
578;DHT22;275;48.492;9.214;2023-05-02T06:10:26;15.50;41.20
578;DHT22;275;48.492;9.214;2023-05-02T06:12:53;15.60;40.80
578;DHT22;275;48.492;9.214;2023-05-02T06:15:21;15.70;40.40
578;DHT22;275;48.492;9.214;2023-05-02T06:17:49;15.70;40.30
578;DHT22;275;48.492;9.214;2023-05-02T06:20:16;16.00;40.00
578;DHT22;275;48.492;9.214;2023-05-02T06:22:43;15.90;40.40
578;DHT22;275;48.492;9.214;2023-05-02T06:25:10;16.00;39.90
578;DHT22;275;48.492;9.214;2023-05-02T06:27:37;16.30;39.80
578;DHT22;275;48.492;9.214;2023-05-02T06:30:05;16.40;39.60
578;DHT22;275;48.492;9.214;2023-05-02T06:32:33;16.40;39.80
578;DHT22;275;48.492;9.214;2023-05-02T06:35:00;16.20;40.40
578;DHT22;275;48.492;9.214;2023-05-02T06:37:32;16.30;40.60
578;DHT22;275;48.492;9.214;2023-05-02T06:39:58;16.50;39.90
578;DHT22;275;48.492;9.214;2023-05-02T06:42:25;16.50;40.00
578;DHT22;275;48.492;9.214;2023-05-02T06:44:52;16.40;40.10
578;DHT22;275;48.492;9.214;2023-05-02T06:47:19;16.30;40.40
578;DHT22;275;48.492;9.214;2023-05-02T06:49:47;16.10;40.70
578;DHT22;275;48.492;9.214;2023-05-02T06:52:14;15.70;42.10
578;DHT22;275;48.492;9.214;2023-05-02T06:54:41;15.60;42.20
578;DHT22;275;48.492;9.214;2023-05-02T06:57:08;15.80;41.90
578;DHT22;275;48.492;9.214;2023-05-02T06:59:35;16.00;41.60
578;DHT22;275;48.492;9.214;2023-05-02T07:02:02;16.50;40.50
578;DHT22;275;48.492;9.214;2023-05-02T07:04:29;16.30;40.70
578;DHT22;275;48.492;9.214;2023-05-02T07:06:57;16.20;41.20
578;DHT22;275;48.492;9.214;2023-05-02T07:09:24;16.30;41.30
578;DHT22;275;48.492;9.214;2023-05-02T07:11:50;16.70;40.00
578;DHT22;275;48.492;9.214;2023-05-02T07:14:17;16.80;39.90
578;DHT22;275;48.492;9.214;2023-05-02T07:16:44;16.90;39.60
578;DHT22;275;48.492;9.214;2023-05-02T07:19:11;16.70;39.80
578;DHT22;275;48.492;9.214;2023-05-02T07:21:38;16.60;39.50
578;DHT22;275;48.492;9.214;2023-05-02T07:24:06;16.60;39.70
578;DHT22;275;48.492;9.214;2023-05-02T07:26:33;16.30;41.00
578;DHT22;275;48.492;9.214;2023-05-02T07:29:00;16.60;39.80
578;DHT22;275;48.492;9.214;2023-05-02T07:31:26;16.30;40.20
578;DHT22;275;48.492;9.214;2023-05-02T07:33:53;16.50;39.70
578;DHT22;275;48.492;9.214;2023-05-02T07:36:20;16.40;39.70
578;DHT22;275;48.492;9.214;2023-05-02T07:38:47;15.60;40.80
578;DHT22;275;48.492;9.214;2023-05-02T07:41:15;15.80;41.60
578;DHT22;275;48.492;9.214;2023-05-02T07:43:42;16.30;40.40
578;DHT22;275;48.492;9.214;2023-05-02T07:46:09;15.60;42.00
578;DHT22;275;48.492;9.214;2023-05-02T07:48:36;15.60;42.00
578;DHT22;275;48.492;9.214;2023-05-02T07:51:06;16.20;40.30
578;DHT22;275;48.492;9.214;2023-05-02T07:53:33;16.40;39.70
578;DHT22;275;48.492;9.214;2023-05-02T07:56:02;15.80;40.50
578;DHT22;275;48.492;9.214;2023-05-02T07:58:30;15.50;42.00
578;DHT22;275;48.492;9.214;2023-05-02T08:00:57;16.10;40.70
578;DHT22;275;48.492;9.214;2023-05-02T08:03:24;16.80;38.80
578;DHT22;275;48.492;9.214;2023-05-02T08:05:51;16.60;37.40
578;DHT22;275;48.492;9.214;2023-05-02T08:08:18;16.80;36.60
578;DHT22;275;48.492;9.214;2023-05-02T08:10:44;17.40;35.70
578;DHT22;275;48.492;9.214;2023-05-02T08:13:11;17.30;35.40
578;DHT22;275;48.492;9.214;2023-05-02T08:15:40;16.80;36.10
578;DHT22;275;48.492;9.214;2023-05-02T08:18:07;16.90;36.20
578;DHT22;275;48.492;9.214;2023-05-02T08:20:34;17.00;35.90
578;DHT22;275;48.492;9.214;2023-05-02T08:23:00;17.00;35.90
578;DHT22;275;48.492;9.214;2023-05-02T08:25:27;16.80;36.40
578;DHT22;275;48.492;9.214;2023-05-02T08:27:55;17.00;36.40
578;DHT22;275;48.492;9.214;2023-05-02T08:30:21;17.00;36.30
578;DHT22;275;48.492;9.214;2023-05-02T08:32:50;16.90;36.40
578;DHT22;275;48.492;9.214;2023-05-02T08:35:17;16.70;37.00
578;DHT22;275;48.492;9.214;2023-05-02T08:37:44;16.70;36.70
578;DHT22;275;48.492;9.214;2023-05-02T08:40:11;16.50;37.20
578;DHT22;275;48.492;9.214;2023-05-02T08:42:41;16.20;38.00
578;DHT22;275;48.492;9.214;2023-05-02T08:45:11;16.10;38.50
578;DHT22;275;48.492;9.214;2023-05-02T08:47:39;16.40;38.00
578;DHT22;275;48.492;9.214;2023-05-02T08:50:09;16.40;37.80
578;DHT22;275;48.492;9.214;2023-05-02T08:52:36;17.10;36.80
578;DHT22;275;48.492;9.214;2023-05-02T08:55:05;17.30;36.30
578;DHT22;275;48.492;9.214;2023-05-02T08:57:32;17.30;35.90
578;DHT22;275;48.492;9.214;2023-05-02T08:59:59;16.90;36.80
578;DHT22;275;48.492;9.214;2023-05-02T09:02:43;17.00;36.70
578;DHT22;275;48.492;9.214;2023-05-02T09:05:18;17.30;36.30
578;DHT22;275;48.492;9.214;2023-05-02T09:07:46;17.90;35.00
578;DHT22;275;48.492;9.214;2023-05-02T09:10:13;18.10;34.50
578;DHT22;275;48.492;9.214;2023-05-02T09:12:40;18.00;34.70
578;DHT22;275;48.492;9.214;2023-05-02T09:15:12;18.40;34.00
578;DHT22;275;48.492;9.214;2023-05-02T09:17:42;18.80;33.30
578;DHT22;275;48.492;9.214;2023-05-02T09:20:10;19.00;32.70
578;DHT22;275;48.492;9.214;2023-05-02T09:22:38;19.30;32.10
578;DHT22;275;48.492;9.214;2023-05-02T09:25:06;19.60;31.90
578;DHT22;275;48.492;9.214;2023-05-02T09:27:49;19.60;31.70
578;DHT22;275;48.492;9.214;2023-05-02T09:30:18;19.70;31.30
578;DHT22;275;48.492;9.214;2023-05-02T09:32:45;19.50;32.20
578;DHT22;275;48.492;9.214;2023-05-02T09:35:12;20.20;30.90
578;DHT22;275;48.492;9.214;2023-05-02T09:37:50;20.30;30.70
578;DHT22;275;48.492;9.214;2023-05-02T09:40:16;20.80;29.80
578;DHT22;275;48.492;9.214;2023-05-02T09:42:44;21.40;28.90
578;DHT22;275;48.492;9.214;2023-05-02T09:45:19;21.70;29.00
578;DHT22;275;48.492;9.214;2023-05-02T09:47:46;21.30;28.60
578;DHT22;275;48.492;9.214;2023-05-02T09:50:31;21.10;28.70
578;DHT22;275;48.492;9.214;2023-05-02T09:53:04;21.10;29.10
578;DHT22;275;48.492;9.214;2023-05-02T09:55:31;21.10;28.70
578;DHT22;275;48.492;9.214;2023-05-02T09:57:58;21.10;29.00
578;DHT22;275;48.492;9.214;2023-05-02T10:00:38;21.40;28.30
578;DHT22;275;48.492;9.214;2023-05-02T10:03:06;21.80;27.80
578;DHT22;275;48.492;9.214;2023-05-02T10:05:35;22.20;27.60
578;DHT22;275;48.492;9.214;2023-05-02T10:08:05;22.70;26.90
578;DHT22;275;48.492;9.214;2023-05-02T10:10:35;22.50;26.30
578;DHT22;275;48.492;9.214;2023-05-02T10:13:03;20.80;29.00
578;DHT22;275;48.492;9.214;2023-05-02T10:15:30;21.50;27.90
578;DHT22;275;48.492;9.214;2023-05-02T10:17:59;22.10;27.50
578;DHT22;275;48.492;9.214;2023-05-02T10:20:30;25.10;24.60
578;DHT22;275;48.492;9.214;2023-05-02T10:22:58;27.80;21.60
578;DHT22;275;48.492;9.214;2023-05-02T10:25:28;28.50;19.70
578;DHT22;275;48.492;9.214;2023-05-02T10:27:55;28.00;19.50
578;DHT22;275;48.492;9.214;2023-05-02T10:30:24;27.70;19.30
578;DHT22;275;48.492;9.214;2023-05-02T10:32:51;28.70;18.40
578;DHT22;275;48.492;9.214;2023-05-02T10:35:19;28.80;18.20
578;DHT22;275;48.492;9.214;2023-05-02T10:37:46;29.80;17.30
578;DHT22;275;48.492;9.214;2023-05-02T10:40:14;29.10;17.90
578;DHT22;275;48.492;9.214;2023-05-02T10:42:45;28.00;18.40
578;DHT22;275;48.492;9.214;2023-05-02T10:45:28;26.60;20.10
578;DHT22;275;48.492;9.214;2023-05-02T10:48:11;25.90;21.10
578;DHT22;275;48.492;9.214;2023-05-02T10:50:42;28.30;18.60
578;DHT22;275;48.492;9.214;2023-05-02T10:53:27;29.70;17.20
578;DHT22;275;48.492;9.214;2023-05-02T10:56:14;29.00;17.30
578;DHT22;275;48.492;9.214;2023-05-02T10:58:43;28.90;17.10
578;DHT22;275;48.492;9.214;2023-05-02T11:01:35;27.90;18.20
578;DHT22;275;48.492;9.214;2023-05-02T11:04:08;24.70;21.50
578;DHT22;275;48.492;9.214;2023-05-02T11:06:36;23.50;23.80
578;DHT22;275;48.492;9.214;2023-05-02T11:09:33;24.30;22.70
578;DHT22;275;48.492;9.214;2023-05-02T11:12:01;25.40;21.20
578;DHT22;275;48.492;9.214;2023-05-02T11:14:58;24.70;21.80
578;DHT22;275;48.492;9.214;2023-05-02T11:17:25;24.80;21.20
578;DHT22;275;48.492;9.214;2023-05-02T11:22:57;23.50;23.30
578;DHT22;275;48.492;9.214;2023-05-02T11:25:36;26.20;19.90
578;DHT22;275;48.492;9.214;2023-05-02T11:28:06;25.50;20.60
578;DHT22;275;48.492;9.214;2023-05-02T11:30:42;25.20;20.60
578;DHT22;275;48.492;9.214;2023-05-02T11:33:14;23.80;22.20
578;DHT22;275;48.492;9.214;2023-05-02T11:35:43;22.70;23.90
578;DHT22;275;48.492;9.214;2023-05-02T11:38:11;22.50;23.90
578;DHT22;275;48.492;9.214;2023-05-02T11:40:38;21.80;25.30
578;DHT22;275;48.492;9.214;2023-05-02T11:43:15;20.80;27.00
578;DHT22;275;48.492;9.214;2023-05-02T11:45:43;20.50;27.60
578;DHT22;275;48.492;9.214;2023-05-02T11:48:11;22.40;25.00
578;DHT22;275;48.492;9.214;2023-05-02T11:50:41;23.80;23.40
578;DHT22;275;48.492;9.214;2023-05-02T11:53:11;23.80;23.80
578;DHT22;275;48.492;9.214;2023-05-02T11:55:44;23.40;23.70
578;DHT22;275;48.492;9.214;2023-05-02T11:58:12;23.70;23.40
578;DHT22;275;48.492;9.214;2023-05-02T12:00:40;22.10;25.00
578;DHT22;275;48.492;9.214;2023-05-02T12:03:23;21.00;26.70
578;DHT22;275;48.492;9.214;2023-05-02T12:05:50;21.50;26.00
578;DHT22;275;48.492;9.214;2023-05-02T12:08:19;21.20;26.30
578;DHT22;275;48.492;9.214;2023-05-02T12:10:48;20.30;26.70
578;DHT22;275;48.492;9.214;2023-05-02T12:13:16;21.00;26.50
578;DHT22;275;48.492;9.214;2023-05-02T12:15:43;21.00;25.90
578;DHT22;275;48.492;9.214;2023-05-02T12:18:11;20.60;26.40
578;DHT22;275;48.492;9.214;2023-05-02T12:20:39;20.60;25.80
578;DHT22;275;48.492;9.214;2023-05-02T12:23:07;20.70;25.60
578;DHT22;275;48.492;9.214;2023-05-02T12:25:37;21.00;24.90
578;DHT22;275;48.492;9.214;2023-05-02T12:28:04;20.80;25.40
578;DHT22;275;48.492;9.214;2023-05-02T12:30:32;21.30;24.40
578;DHT22;275;48.492;9.214;2023-05-02T12:32:59;21.60;24.20
578;DHT22;275;48.492;9.214;2023-05-02T12:35:27;23.40;22.50
578;DHT22;275;48.492;9.214;2023-05-02T12:38:10;25.60;20.10
578;DHT22;275;48.492;9.214;2023-05-02T12:40:38;28.60;16.10
578;DHT22;275;48.492;9.214;2023-05-02T12:43:05;30.20;14.70
578;DHT22;275;48.492;9.214;2023-05-02T12:45:35;32.10;13.30
578;DHT22;275;48.492;9.214;2023-05-02T12:48:16;32.80;12.00
578;DHT22;275;48.492;9.214;2023-05-02T12:50:44;32.20;11.90
578;DHT22;275;48.492;9.214;2023-05-02T12:53:12;31.90;12.10
578;DHT22;275;48.492;9.214;2023-05-02T12:55:39;30.80;13.00
578;DHT22;275;48.492;9.214;2023-05-02T12:58:07;30.20;14.10
578;DHT22;275;48.492;9.214;2023-05-02T13:00:37;27.90;15.90
578;DHT22;275;48.492;9.214;2023-05-02T13:03:04;28.20;16.00
578;DHT22;275;48.492;9.214;2023-05-02T13:05:31;28.60;15.50
578;DHT22;275;48.492;9.214;2023-05-02T13:07:58;25.50;18.50
578;DHT22;275;48.492;9.214;2023-05-02T13:10:26;25.50;19.30
578;DHT22;275;48.492;9.214;2023-05-02T13:12:54;24.60;19.40
578;DHT22;275;48.492;9.214;2023-05-02T13:15:21;23.70;20.20
578;DHT22;275;48.492;9.214;2023-05-02T13:17:49;24.00;19.80
578;DHT22;275;48.492;9.214;2023-05-02T13:20:16;23.80;20.70
578;DHT22;275;48.492;9.214;2023-05-02T13:22:43;23.20;21.90
578;DHT22;275;48.492;9.214;2023-05-02T13:25:10;21.80;22.90
578;DHT22;275;48.492;9.214;2023-05-02T13:27:38;20.70;24.20
578;DHT22;275;48.492;9.214;2023-05-02T13:30:07;20.20;24.70
578;DHT22;275;48.492;9.214;2023-05-02T13:32:34;19.50;25.70
578;DHT22;275;48.492;9.214;2023-05-02T13:35:01;19.40;26.10
578;DHT22;275;48.492;9.214;2023-05-02T13:37:29;19.50;25.80
578;DHT22;275;48.492;9.214;2023-05-02T13:39:55;20.10;25.10
578;DHT22;275;48.492;9.214;2023-05-02T13:42:22;20.40;25.40
578;DHT22;275;48.492;9.214;2023-05-02T13:44:50;19.80;25.80
578;DHT22;275;48.492;9.214;2023-05-02T13:47:17;19.30;26.30
578;DHT22;275;48.492;9.214;2023-05-02T13:49:44;19.90;25.70
578;DHT22;275;48.492;9.214;2023-05-02T13:52:11;20.00;25.00
578;DHT22;275;48.492;9.214;2023-05-02T13:54:38;19.50;26.20
578;DHT22;275;48.492;9.214;2023-05-02T13:57:04;19.30;25.10
578;DHT22;275;48.492;9.214;2023-05-02T13:59:31;19.20;25.30
578;DHT22;275;48.492;9.214;2023-05-02T14:01:59;20.00;24.50
578;DHT22;275;48.492;9.214;2023-05-02T14:04:26;19.60;24.30
578;DHT22;275;48.492;9.214;2023-05-02T14:06:53;19.70;24.50
578;DHT22;275;48.492;9.214;2023-05-02T14:09:20;20.20;23.80
578;DHT22;275;48.492;9.214;2023-05-02T14:11:47;19.90;24.00
578;DHT22;275;48.492;9.214;2023-05-02T14:14:14;20.30;23.50
578;DHT22;275;48.492;9.214;2023-05-02T14:16:41;19.70;23.90
578;DHT22;275;48.492;9.214;2023-05-02T14:19:09;19.30;24.80
578;DHT22;275;48.492;9.214;2023-05-02T14:21:36;19.20;26.30
578;DHT22;275;48.492;9.214;2023-05-02T14:24:04;18.90;27.80
578;DHT22;275;48.492;9.214;2023-05-02T14:26:31;19.30;27.20
578;DHT22;275;48.492;9.214;2023-05-02T14:28:58;19.30;27.20
578;DHT22;275;48.492;9.214;2023-05-02T14:31:26;19.40;26.90
578;DHT22;275;48.492;9.214;2023-05-02T14:33:52;19.40;27.00
578;DHT22;275;48.492;9.214;2023-05-02T14:36:21;19.10;27.30
578;DHT22;275;48.492;9.214;2023-05-02T14:38:47;19.10;27.00
578;DHT22;275;48.492;9.214;2023-05-02T14:41:14;19.40;26.90
578;DHT22;275;48.492;9.214;2023-05-02T14:43:41;19.60;26.80
578;DHT22;275;48.492;9.214;2023-05-02T14:46:08;19.50;27.00
578;DHT22;275;48.492;9.214;2023-05-02T14:48:35;19.90;26.70
578;DHT22;275;48.492;9.214;2023-05-02T14:51:05;20.00;26.30
578;DHT22;275;48.492;9.214;2023-05-02T14:53:33;19.80;26.40
578;DHT22;275;48.492;9.214;2023-05-02T14:56:00;19.70;26.00
578;DHT22;275;48.492;9.214;2023-05-02T14:58:27;19.80;26.40
578;DHT22;275;48.492;9.214;2023-05-02T15:00:54;20.20;24.50
578;DHT22;275;48.492;9.214;2023-05-02T15:03:20;20.40;24.20
578;DHT22;275;48.492;9.214;2023-05-02T15:05:47;20.00;24.70
578;DHT22;275;48.492;9.214;2023-05-02T15:08:14;20.50;24.60
578;DHT22;275;48.492;9.214;2023-05-02T15:10:42;20.70;23.90
578;DHT22;275;48.492;9.214;2023-05-02T15:13:09;20.30;23.90
578;DHT22;275;48.492;9.214;2023-05-02T15:15:36;20.30;24.40
578;DHT22;275;48.492;9.214;2023-05-02T15:18:03;20.50;23.50
578;DHT22;275;48.492;9.214;2023-05-02T15:20:30;19.60;24.00
578;DHT22;275;48.492;9.214;2023-05-02T15:22:56;19.90;24.40
578;DHT22;275;48.492;9.214;2023-05-02T15:25:27;20.50;22.80
578;DHT22;275;48.492;9.214;2023-05-02T15:27:56;19.90;22.40
578;DHT22;275;48.492;9.214;2023-05-02T15:30:23;19.60;23.70
578;DHT22;275;48.492;9.214;2023-05-02T15:32:50;19.60;23.30
578;DHT22;275;48.492;9.214;2023-05-02T15:35:16;19.60;23.60
578;DHT22;275;48.492;9.214;2023-05-02T15:37:43;20.20;22.70
578;DHT22;275;48.492;9.214;2023-05-02T15:40:11;20.70;22.20
578;DHT22;275;48.492;9.214;2023-05-02T15:42:39;21.50;21.20
578;DHT22;275;48.492;9.214;2023-05-02T15:45:10;21.90;21.00
578;DHT22;275;48.492;9.214;2023-05-02T15:47:37;21.10;22.80
578;DHT22;275;48.492;9.214;2023-05-02T15:50:05;20.60;23.80
578;DHT22;275;48.492;9.214;2023-05-02T15:52:32;20.10;24.80
578;DHT22;275;48.492;9.214;2023-05-02T15:54:59;19.40;26.00
578;DHT22;275;48.492;9.214;2023-05-02T15:57:26;19.40;26.60
578;DHT22;275;48.492;9.214;2023-05-02T15:59:53;19.90;26.00
578;DHT22;275;48.492;9.214;2023-05-02T16:02:21;19.30;25.90
578;DHT22;275;48.492;9.214;2023-05-02T16:04:48;19.10;26.40
578;DHT22;275;48.492;9.214;2023-05-02T16:07:15;18.90;25.80
578;DHT22;275;48.492;9.214;2023-05-02T16:09:41;19.00;25.90
578;DHT22;275;48.492;9.214;2023-05-02T16:12:08;19.20;25.00
578;DHT22;275;48.492;9.214;2023-05-02T16:14:35;19.40;24.90
578;DHT22;275;48.492;9.214;2023-05-02T16:17:02;19.20;24.90
578;DHT22;275;48.492;9.214;2023-05-02T16:19:30;18.50;25.70
578;DHT22;275;48.492;9.214;2023-05-02T16:21:58;18.50;26.00
578;DHT22;275;48.492;9.214;2023-05-02T16:24:25;18.80;26.00
578;DHT22;275;48.492;9.214;2023-05-02T16:26:52;18.80;25.90
578;DHT22;275;48.492;9.214;2023-05-02T16:29:18;18.60;27.20
578;DHT22;275;48.492;9.214;2023-05-02T16:31:45;18.60;27.40
578;DHT22;275;48.492;9.214;2023-05-02T16:34:12;18.60;27.40
578;DHT22;275;48.492;9.214;2023-05-02T16:36:40;18.60;27.20
578;DHT22;275;48.492;9.214;2023-05-02T16:39:07;18.50;27.50
578;DHT22;275;48.492;9.214;2023-05-02T16:41:35;18.50;27.30
578;DHT22;275;48.492;9.214;2023-05-02T16:44:02;18.40;27.30
578;DHT22;275;48.492;9.214;2023-05-02T16:46:30;18.20;27.50